createdAt,value
2023-03-19T00:03:59.011Z,15.82
2023-03-19T00:08:01.897Z,6.85
2023-03-19T00:12:05.446Z,9.00
2023-03-19T00:16:09.191Z,8.98
2023-03-19T00:20:20.680Z,6.35
2023-03-19T00:24:24.970Z,6.32
2023-03-19T00:28:28.133Z,6.18
2023-03-19T00:32:33.589Z,6.00
2023-03-19T00:36:38.613Z,5.60
2023-03-19T00:40:41.491Z,6.03
2023-03-19T00:44:44.557Z,6.57
2023-03-19T00:48:47.463Z,6.57
2023-03-19T00:52:52.222Z,7.47
2023-03-19T00:56:54.994Z,5.82
2023-03-19T01:01:01.052Z,9.38
2023-03-19T01:05:04.157Z,5.70
2023-03-19T01:09:08.788Z,4.95
2023-03-19T01:13:12.448Z,5.28
2023-03-19T01:17:15.397Z,5.00
2023-03-19T01:21:18.866Z,4.30
2023-03-19T01:25:24.100Z,3.88
2023-03-19T01:29:27.265Z,3.90
2023-03-19T01:33:39.621Z,3.55
2023-03-19T01:37:42.804Z,4.45
2023-03-19T01:41:47.968Z,4.55
2023-03-19T01:45:51.926Z,5.22
2023-03-19T01:49:57.251Z,4.70
2023-03-19T01:54:01.923Z,4.22
2023-03-19T01:58:07.818Z,3.42
2023-03-19T02:02:22.121Z,3.30
2023-03-19T02:06:27.327Z,3.42
2023-03-19T02:10:31.145Z,4.97
2023-03-19T02:14:37.208Z,3.22
2023-03-19T02:18:40.441Z,3.20
2023-03-19T02:22:48.713Z,3.38
2023-03-19T02:26:53.446Z,3.30
2023-03-19T02:30:56.888Z,3.05
2023-03-19T02:35:00.664Z,3.47
2023-03-19T02:39:05.891Z,4.35
2023-03-19T02:43:14.834Z,5.15
2023-03-19T02:47:18.174Z,3.95
2023-03-19T02:51:21.010Z,3.45
2023-03-19T02:55:24.079Z,3.70
2023-03-19T02:59:28.624Z,4.10
2023-03-19T03:03:33.508Z,5.82
2023-03-19T03:07:36.363Z,7.40
2023-03-19T03:11:41.241Z,4.07
2023-03-19T03:15:49.686Z,3.90
2023-03-19T03:19:52.462Z,6.78
2023-03-19T03:23:55.181Z,4.13
2023-03-19T03:27:58.357Z,6.35
2023-03-19T03:32:02.626Z,4.03
2023-03-19T03:40:11.494Z,4.55
2023-03-19T03:44:14.447Z,4.72
2023-03-19T03:48:19.311Z,4.97
2023-03-19T03:52:22.735Z,4.72
2023-03-19T03:56:26.186Z,5.10
2023-03-19T04:00:32.477Z,6.35
2023-03-19T04:04:37.294Z,6.82
2023-03-19T04:08:40.202Z,5.00
2023-03-19T04:12:43.479Z,5.18
2023-03-19T04:16:47.612Z,6.75
2023-03-19T04:24:55.678Z,9.75
2023-03-19T04:29:00.042Z,15.93
2023-03-19T04:33:04.749Z,17.02
2023-03-19T04:37:11.446Z,16.17
2023-03-19T04:41:16.316Z,20.67
2023-03-19T04:45:19.186Z,21.27
2023-03-19T04:49:22.144Z,20.52
2023-03-19T04:53:26.711Z,18.33
2023-03-19T04:57:32.824Z,22.90
2023-03-19T05:01:36.608Z,18.83
2023-03-19T05:05:39.492Z,11.80
2023-03-19T05:09:44.013Z,13.63
2023-03-19T05:13:47.069Z,12.55
2023-03-19T05:17:51.242Z,15.40
2023-03-19T05:21:54.072Z,16.67
2023-03-19T05:26:00.238Z,14.68
2023-03-19T05:30:03.093Z,18.00
2023-03-19T05:34:05.939Z,10.23
2023-03-19T05:38:09.594Z,12.65
2023-03-19T05:42:14.889Z,10.57
2023-03-19T05:46:19.085Z,9.20
2023-03-19T05:50:22.069Z,16.33
2023-03-19T05:54:24.998Z,11.68
2023-03-19T05:58:29.615Z,10.60
2023-03-19T06:02:32.523Z,9.90
2023-03-19T06:06:36.563Z,10.32
2023-03-19T06:14:44.497Z,10.50
2023-03-19T06:18:49.760Z,8.82
2023-03-19T06:22:52.883Z,13.40
2023-03-19T06:26:55.853Z,11.95
2023-03-19T06:31:00.348Z,10.75
2023-03-19T06:35:03.149Z,13.70
2023-03-19T06:39:06.056Z,11.77
2023-03-19T06:43:08.979Z,17.10
2023-03-19T06:47:15.374Z,10.02
2023-03-19T06:51:18.209Z,13.10
2023-03-19T06:55:21.104Z,12.25
2023-03-19T06:59:24.066Z,11.40
2023-03-19T07:03:28.510Z,10.55
2023-03-19T07:07:31.646Z,13.68
2023-03-19T07:11:35.917Z,16.27
2023-03-19T07:15:38.854Z,14.55
2023-03-19T07:19:43.359Z,16.33
2023-03-19T07:23:47.015Z,20.48
2023-03-19T07:27:50.152Z,18.58
2023-03-19T07:31:53.005Z,16.38
2023-03-19T07:35:57.358Z,12.68
2023-03-19T07:40:00.376Z,13.52
2023-03-19T07:44:03.329Z,15.20
2023-03-19T07:48:07.402Z,16.55
2023-03-19T07:52:13.513Z,13.75
2023-03-19T07:56:16.723Z,13.52
2023-03-19T08:00:21.448Z,13.77
2023-03-19T08:04:24.401Z,10.38
2023-03-19T08:08:28.639Z,10.23
2023-03-19T08:12:31.965Z,14.30
2023-03-19T08:16:34.868Z,11.75
2023-03-19T08:20:38.248Z,10.10
2023-03-19T08:24:44.642Z,7.32
2023-03-19T08:28:47.487Z,7.93
2023-03-19T08:32:51.413Z,7.32
2023-03-19T08:36:54.779Z,6.90
2023-03-19T08:41:02.526Z,7.03
2023-03-19T08:45:07.714Z,11.77
2023-03-19T08:49:10.862Z,9.73
2023-03-19T08:53:26.844Z,8.30
2023-03-19T08:57:38.605Z,11.27
2023-03-19T09:01:54.197Z,11.73
2023-03-19T09:06:32.428Z,13.20
2023-03-19T09:15:21.028Z,12.35
2023-03-19T09:19:48.193Z,10.30
2023-03-19T09:23:56.926Z,10.90
2023-03-19T09:28:19.736Z,14.45
2023-03-19T09:37:12.837Z,9.57
2023-03-19T09:41:34.676Z,8.90
2023-03-19T09:45:42.895Z,8.95
2023-03-19T09:50:13.435Z,8.13
2023-03-19T09:55:04.870Z,7.03
2023-03-19T09:59:17.534Z,8.05
2023-03-19T10:03:48.935Z,7.60
2023-03-19T10:08:16.754Z,6.40
2023-03-19T10:12:58.766Z,5.70
2023-03-19T10:17:13.653Z,4.78
2023-03-19T10:21:32.564Z,4.55
2023-03-19T10:25:42.861Z,5.32
2023-03-19T10:30:06.924Z,4.20
2023-03-19T10:34:35.693Z,6.13
2023-03-19T10:38:56.875Z,5.55
2023-03-19T10:43:23.897Z,6.13
2023-03-19T10:47:50.939Z,6.43
2023-03-19T10:51:57.753Z,5.35
2023-03-19T10:56:26.094Z,5.40
2023-03-19T11:00:47.703Z,4.57
2023-03-19T11:04:53.391Z,4.68
2023-03-19T11:13:27.842Z,4.20
2023-03-19T11:17:49.718Z,4.88
2023-03-19T11:22:15.046Z,4.65
2023-03-19T11:26:40.243Z,5.72
2023-03-19T11:30:52.304Z,5.28
2023-03-19T11:35:01.543Z,5.65
2023-03-19T11:39:23.211Z,6.18
2023-03-19T11:44:15.582Z,5.85
2023-03-19T11:49:08.333Z,6.53
2023-03-19T11:53:29.642Z,6.75
2023-03-19T12:03:09.983Z,4.93
2023-03-19T12:07:27.302Z,6.10
2023-03-19T12:12:00.089Z,6.05
2023-03-19T12:30:05.371Z,5.35
2023-03-19T12:34:50.087Z,5.03
2023-03-19T12:39:14.920Z,5.13
2023-03-19T12:43:34.344Z,5.50
2023-03-19T12:47:40.272Z,5.25
2023-03-19T12:51:46.774Z,4.63
2023-03-19T12:56:22.369Z,4.55
2023-03-19T13:00:50.292Z,6.00
2023-03-19T13:04:59.392Z,5.03
2023-03-19T13:09:07.145Z,4.63
2023-03-19T13:13:27.248Z,6.57
2023-03-19T13:22:12.647Z,8.55
2023-03-19T13:26:33.523Z,8.02
2023-03-19T13:31:12.654Z,5.38
2023-03-19T13:36:04.370Z,5.07
2023-03-19T13:40:31.175Z,11.25
2023-03-19T13:44:57.903Z,6.55
2023-03-19T13:49:40.616Z,6.97
2023-03-19T13:54:23.276Z,6.68
2023-03-19T13:59:23.497Z,6.25
2023-03-19T14:03:37.785Z,5.25
2023-03-19T14:08:34.217Z,5.93
2023-03-19T14:12:43.806Z,6.60
2023-03-19T14:21:54.989Z,8.40
2023-03-19T14:26:07.058Z,4.90
2023-03-19T14:30:15.038Z,6.53
2023-03-19T14:34:37.033Z,4.70
2023-03-19T14:39:05.211Z,4.60
2023-03-19T14:43:15.601Z,5.30
2023-03-19T14:47:33.300Z,4.30
2023-03-19T14:52:26.391Z,5.80
2023-03-19T14:56:45.949Z,3.88
2023-03-19T15:01:09.859Z,2.70
2023-03-19T15:05:21.819Z,2.47
2023-03-19T15:09:30.111Z,2.42
2023-03-19T15:18:47.071Z,1.92
2023-03-19T15:23:26.288Z,1.80
2023-03-19T15:32:06.622Z,2.40
2023-03-19T15:36:41.612Z,2.80
2023-03-19T15:40:46.897Z,2.80
2023-03-19T15:45:11.005Z,3.47
2023-03-19T15:54:16.241Z,3.78
2023-03-19T15:58:29.367Z,4.88
2023-03-19T16:02:46.383Z,5.30
2023-03-19T16:08:31.970Z,4.35
2023-03-19T16:12:39.794Z,3.90
2023-03-19T16:16:43.519Z,3.55
2023-03-19T16:24:51.765Z,2.30
2023-03-19T16:29:00.907Z,1.92
2023-03-19T16:33:05.278Z,1.48
2023-03-19T16:37:34.793Z,1.30
2023-03-19T16:41:38.968Z,1.30
2023-03-19T16:45:42.531Z,1.38
2023-03-19T16:49:47.351Z,1.45
2023-03-19T16:53:50.840Z,1.63
2023-03-19T16:57:58.709Z,1.60
2023-03-19T17:02:01.521Z,2.40
2023-03-19T17:06:05.388Z,3.22
2023-03-19T17:10:09.054Z,2.63
2023-03-19T17:14:16.740Z,2.60
2023-03-19T17:18:21.633Z,3.53
2023-03-19T17:22:27.624Z,2.70
2023-03-19T17:26:30.631Z,2.38
2023-03-19T17:30:35.429Z,2.72
2023-03-19T17:34:38.624Z,2.65
2023-03-19T17:38:41.867Z,3.35
2023-03-19T17:42:44.518Z,2.30
2023-03-19T17:46:50.003Z,2.92
2023-03-19T17:50:52.858Z,2.72
2023-03-19T17:54:55.609Z,2.97
2023-03-19T17:58:58.835Z,4.13
2023-03-19T18:03:02.944Z,2.45
2023-03-19T18:07:05.708Z,2.30
2023-03-19T18:11:08.562Z,2.00
2023-03-19T18:15:12.349Z,1.70
2023-03-19T18:23:24.009Z,1.92
2023-03-19T18:27:26.808Z,2.05
2023-03-19T18:31:30.450Z,2.38
2023-03-19T18:35:36.114Z,2.22
2023-03-19T18:39:38.835Z,1.98
2023-03-19T18:43:41.547Z,2.00
2023-03-19T18:47:45.899Z,1.80
2023-03-19T18:52:01.708Z,2.00
2023-03-19T18:56:08.117Z,2.20
2023-03-19T19:00:18.071Z,2.40
2023-03-19T19:04:20.888Z,2.72
2023-03-19T19:08:26.831Z,3.10
2023-03-19T19:12:29.578Z,4.25
2023-03-19T19:16:35.490Z,3.35
2023-03-19T19:20:38.097Z,13.02
2023-03-19T19:24:42.145Z,6.28
2023-03-19T19:32:48.155Z,3.30
2023-03-19T19:36:52.389Z,6.75
2023-03-19T19:40:58.350Z,3.70
2023-03-19T19:45:03.176Z,3.88
2023-03-19T19:49:06.386Z,4.80
2023-03-19T19:53:09.633Z,3.25
2023-03-19T19:57:19.773Z,5.75
2023-03-19T20:01:24.360Z,4.38
2023-03-19T20:05:28.745Z,7.30
2023-03-19T20:09:32.071Z,7.07
2023-03-19T20:13:36.635Z,6.22
2023-03-19T20:17:39.452Z,8.07
2023-03-19T20:21:42.475Z,11.07
2023-03-19T20:25:46.069Z,6.30
2023-03-19T20:29:51.143Z,6.53
2023-03-19T20:33:54.290Z,6.60
2023-03-19T20:37:58.178Z,18.52
2023-03-19T20:42:00.988Z,7.68
2023-03-19T20:46:07.850Z,6.65
2023-03-19T20:50:18.379Z,6.72
2023-03-19T20:54:21.446Z,8.48
2023-03-19T20:58:27.509Z,7.45
2023-03-19T21:02:31.750Z,6.93
2023-03-19T21:06:46.293Z,6.70
2023-03-19T21:10:55.012Z,6.65
2023-03-19T21:14:57.817Z,7.30
2023-03-19T21:19:02.551Z,7.28
2023-03-19T21:23:10.796Z,9.48
2023-03-19T21:27:19.684Z,7.30
2023-03-19T21:31:22.752Z,8.65
2023-03-19T21:35:28.761Z,9.15
2023-03-19T21:39:31.854Z,6.95
2023-03-19T21:43:37.065Z,8.38
2023-03-19T21:47:40.536Z,7.47
2023-03-19T21:51:44.938Z,7.78
2023-03-19T21:55:47.750Z,7.45
2023-03-19T21:59:50.494Z,7.82
2023-03-19T22:03:53.669Z,9.27
2023-03-19T22:07:57.917Z,6.90
2023-03-19T22:12:01.394Z,6.47
2023-03-19T22:16:04.637Z,6.45
2023-03-19T22:20:07.870Z,5.63
2023-03-19T22:24:12.040Z,6.25
2023-03-19T22:28:18.308Z,6.32
2023-03-19T22:32:21.196Z,7.53
2023-03-19T22:36:23.923Z,7.38
2023-03-19T22:40:28.615Z,6.70
2023-03-19T22:44:32.376Z,7.47
2023-03-19T22:48:35.697Z,8.20
2023-03-19T22:52:38.480Z,5.78
2023-03-19T22:56:42.609Z,6.05
2023-03-19T23:00:45.864Z,5.53
2023-03-19T23:04:48.933Z,5.43
2023-03-19T23:08:51.760Z,4.30
2023-03-19T23:12:57.182Z,5.35
2023-03-19T23:17:03.115Z,5.18
2023-03-19T23:21:06.854Z,5.90
2023-03-19T23:25:14.997Z,5.78
2023-03-19T23:29:24.450Z,9.10
2023-03-19T23:33:27.705Z,6.30
2023-03-19T23:37:30.854Z,5.43
2023-03-19T23:41:33.613Z,5.53
2023-03-19T23:45:39.094Z,8.43
2023-03-19T23:49:42.193Z,17.48
2023-03-19T23:53:45.907Z,5.68
2023-03-19T23:57:48.880Z,6.07
